Time;durP1;ratioP1;P1;durP2;ratioP2;P2;SDS_P1;SDS_P2;PMS_P1;PMS_P2;Temp;Humidity;BMP_temperature;BMP_pressure;BME280_temperature;BME280_humidity;BME280_pressure;Samples;Min_cycle;Max_cycle;Signal;HPM_P1;HPM_P2
2023/06/20 00:00:08;;;;;;;17.08;11.45;;;21.00;96.80;;;;;;5054393;28;20020;-69
2023/06/20 00:02:34;;;;;;;14.23;12.43;;;21.00;97.10;;;;;;5054330;28;20037;-69
2023/06/20 00:05:00;;;;;;;14.35;12.05;;;21.00;97.30;;;;;;5054074;28;20040;-69
2023/06/20 00:07:26;;;;;;;14.50;13.00;;;21.00;97.50;;;;;;5041321;28;20037;-69
2023/06/20 00:09:52;;;;;;;13.80;12.40;;;21.00;97.60;;;;;;5026563;28;24708;-69
2023/06/20 00:12:19;;;;;;;14.57;13.00;;;21.00;97.50;;;;;;5020871;28;20097;-66
2023/06/20 00:14:44;;;;;;;16.48;13.43;;;21.00;97.50;;;;;;5040072;28;20055;-70
2023/06/20 00:17:10;;;;;;;15.32;12.80;;;21.00;97.10;;;;;;5033671;28;20026;-69
2023/06/20 00:19:36;;;;;;;14.63;12.52;;;21.10;96.90;;;;;;5052863;28;20037;-69
2023/06/20 00:22:05;;;;;;;14.10;12.07;;;21.00;96.90;;;;;;5047720;28;20048;-69
2023/06/20 00:24:32;;;;;;;14.68;13.00;;;21.00;97.40;;;;;;5038824;28;20029;-69
2023/06/20 00:27:01;;;;;;;15.07;12.75;;;21.00;97.50;;;;;;5056654;28;20041;-67
2023/06/20 00:29:27;;;;;;;15.88;12.52;;;21.00;97.50;;;;;;5037929;28;20416;-67
2023/06/20 00:31:53;;;;;;;15.48;12.68;;;21.00;97.60;;;;;;5064248;28;20044;-69
2023/06/20 00:34:22;;;;;;;14.65;12.88;;;21.00;97.80;;;;;;5053515;28;20036;-69
2023/06/20 00:36:48;;;;;;;14.57;13.07;;;21.00;98.00;;;;;;5056079;28;20028;-69
2023/06/20 00:39:14;;;;;;;14.85;13.32;;;20.90;98.00;;;;;;5034114;28;20571;-69
2023/06/20 00:41:39;;;;;;;14.23;12.80;;;20.90;97.90;;;;;;5037293;28;20474;-69
2023/06/20 00:44:05;;;;;;;14.77;12.80;;;20.80;97.70;;;;;;5034150;28;20032;-68
2023/06/20 00:46:32;;;;;;;14.52;12.63;;;20.80;97.90;;;;;;5037505;28;20028;-69
2023/06/20 00:49:05;;;;;;;13.38;11.98;;;20.80;98.20;;;;;;5033949;28;20036;-69
2023/06/20 00:51:32;;;;;;;15.32;13.73;;;20.80;98.40;;;;;;5049685;28;20025;-69
2023/06/20 00:53:58;;;;;;;21.38;13.45;;;20.80;98.30;;;;;;5037376;28;20392;-69
2023/06/20 00:56:27;;;;;;;14.80;13.30;;;20.80;98.10;;;;;;5053714;28;20032;-69
2023/06/20 00:58:53;;;;;;;14.38;12.88;;;20.70;98.10;;;;;;5034965;28;20036;-69
2023/06/20 01:01:21;;;;;;;15.23;12.90;;;20.60;98.30;;;;;;5035233;28;20036;-69
2023/06/20 01:03:51;;;;;;;13.95;12.48;;;20.60;98.60;;;;;;5054240;28;20104;-69
2023/06/20 01:06:47;;;;;;;15.38;13.70;;;20.50;98.80;;;;;;5033828;28;20171;-69
2023/06/20 01:09:44;;;;;;;13.60;12.10;;;20.50;98.90;;;;;;5054969;28;20368;-70
2023/06/20 01:12:23;;;;;;;15.63;12.60;;;20.40;99.10;;;;;;5032044;28;20037;-69
2023/06/20 01:14:57;;;;;;;15.23;13.30;;;20.40;99.50;;;;;;5036165;28;20028;-69
2023/06/20 01:17:56;;;;;;;14.98;12.93;;;20.40;99.60;;;;;;5043321;28;20131;-69
2023/06/20 01:20:29;;;;;;;15.20;13.57;;;20.40;99.60;;;;;;5037082;28;20045;-69
2023/06/20 01:23:12;;;;;;;14.25;12.73;;;20.40;99.60;;;;;;5036778;28;20427;-69
2023/06/20 01:25:53;;;;;;;14.95;13.35;;;20.40;99.70;;;;;;5035059;28;20052;-69
2023/06/20 01:28:31;;;;;;;14.70;13.20;;;20.40;99.80;;;;;;5037303;28;20845;-69
2023/06/20 01:31:04;;;;;;;15.65;14.00;;;20.40;99.90;;;;;;5036299;28;20526;-68
2023/06/20 01:33:47;;;;;;;16.65;14.25;;;20.30;99.90;;;;;;5021780;28;20029;-69
2023/06/20 01:36:16;;;;;;;17.40;14.00;;;20.40;99.90;;;;;;5048988;28;20037;-69
2023/06/20 01:38:43;;;;;;;15.65;13.95;;;20.30;99.90;;;;;;5038579;28;20032;-69
2023/06/20 01:41:12;;;;;;;17.08;14.30;;;20.40;99.90;;;;;;5054307;28;20109;-69
2023/06/20 01:43:38;;;;;;;14.63;13.00;;;20.40;99.90;;;;;;5037077;28;20029;-71
2023/06/20 01:46:06;;;;;;;14.85;13.23;;;20.40;99.90;;;;;;5055865;28;20029;-67
2023/06/20 01:48:35;;;;;;;14.82;13.32;;;20.40;99.90;;;;;;5037472;28;20036;-69
2023/06/20 01:51:01;;;;;;;16.25;14.00;;;20.40;99.90;;;;;;5036967;28;20029;-69
2023/06/20 01:53:29;;;;;;;15.70;13.32;;;20.50;99.90;;;;;;5037758;28;20035;-69
2023/06/20 01:55:56;;;;;;;16.50;14.02;;;20.50;99.90;;;;;;5055191;28;20448;-69
2023/06/20 01:58:23;;;;;;;15.88;14.02;;;20.50;99.90;;;;;;5035929;28;20564;-69
2023/06/20 02:00:50;;;;;;;15.25;13.55;;;20.50;99.90;;;;;;5038292;28;20036;-69
2023/06/20 02:03:18;;;;;;;18.30;14.43;;;20.50;99.90;;;;;;5054866;28;20407;-69
2023/06/20 02:05:45;;;;;;;15.85;14.25;;;20.50;99.90;;;;;;5032165;28;20071;-67
2023/06/20 02:08:12;;;;;;;16.60;14.70;;;20.50;99.90;;;;;;5050368;28;20032;-69
2023/06/20 02:10:40;;;;;;;16.00;14.32;;;20.60;99.90;;;;;;5054088;28;20113;-67
2023/06/20 02:13:06;;;;;;;15.68;14.07;;;20.60;99.90;;;;;;5049197;28;20041;-69
2023/06/20 02:15:34;;;;;;;17.02;15.00;;;20.60;99.90;;;;;;5057877;28;20037;-69
2023/06/20 02:18:02;;;;;;;16.88;13.90;;;20.60;99.90;;;;;;5024678;28;20044;-69
2023/06/20 02:20:29;;;;;;;15.25;13.57;;;20.60;99.90;;;;;;5031535;28;20033;-69
2023/06/20 02:22:55;;;;;;;17.30;14.38;;;20.60;99.90;;;;;;5027806;28;20040;-69
2023/06/20 02:25:26;;;;;;;15.80;14.20;;;20.60;99.90;;;;;;5051954;28;20669;-70
2023/06/20 02:27:53;;;;;;;14.57;13.20;;;20.60;99.90;;;;;;5047168;28;20210;-70
2023/06/20 02:30:23;;;;;;;18.50;16.50;;;20.70;99.90;;;;;;5031420;28;20032;-69
2023/06/20 02:32:49;;;;;;;17.48;15.65;;;20.60;99.90;;;;;;5050709;28;20124;-67
2023/06/20 02:35:17;;;;;;;18.25;16.30;;;20.70;99.90;;;;;;5033289;28;20566;-69
2023/06/20 02:37:47;;;;;;;17.80;15.48;;;20.70;99.90;;;;;;5031660;28;20031;-69
2023/06/20 02:40:12;;;;;;;18.48;16.58;;;20.70;99.90;;;;;;5046321;28;20120;-69
2023/06/20 02:42:41;;;;;;;17.83;15.80;;;20.70;99.90;;;;;;5034196;28;20629;-69
2023/06/20 02:45:08;;;;;;;17.02;15.23;;;20.70;99.90;;;;;;5036606;28;20559;-69
2023/06/20 02:47:46;;;;;;;17.95;16.10;;;20.70;99.90;;;;;;5057062;28;20410;-69
2023/06/20 02:50:29;;;;;;;17.83;15.98;;;20.70;99.90;;;;;;5050744;28;20041;-69
2023/06/20 02:53:32;;;;;;;18.77;16.33;;;20.70;99.90;;;;;;5032623;28;20111;-69
2023/06/20 02:56:06;;;;;;;19.95;17.05;;;20.70;99.90;;;;;;5049235;28;20049;-67
2023/06/20 02:58:34;;;;;;;17.50;15.35;;;20.70;99.90;;;;;;5033018;28;20036;-68
2023/06/20 03:01:02;;;;;;;18.98;15.20;;;20.70;99.90;;;;;;5035853;28;20066;-68
2023/06/20 03:03:30;;;;;;;18.02;16.20;;;20.60;99.90;;;;;;5035708;28;20020;-67
2023/06/20 03:05:58;;;;;;;17.85;15.95;;;20.60;99.90;;;;;;5036775;28;20655;-68
2023/06/20 03:08:27;;;;;;;18.55;16.48;;;20.60;99.90;;;;;;5034105;28;20082;-68
2023/06/20 03:10:56;;;;;;;18.77;16.75;;;20.60;99.90;;;;;;5036315;28;20040;-68
2023/06/20 03:13:22;;;;;;;17.90;16.00;;;20.60;99.90;;;;;;5033807;28;20033;-68
2023/06/20 03:15:51;;;;;;;18.95;16.10;;;20.70;99.90;;;;;;5035597;28;20119;-68
2023/06/20 03:18:18;;;;;;;18.70;16.73;;;20.60;99.90;;;;;;5030481;28;20040;-69
2023/06/20 03:20:47;;;;;;;17.02;15.30;;;20.70;99.90;;;;;;5033815;28;20036;-68
2023/06/20 03:23:15;;;;;;;19.70;15.13;;;20.70;99.90;;;;;;5035189;28;20139;-68
2023/06/20 03:25:41;;;;;;;16.95;15.15;;;20.70;99.90;;;;;;5036179;28;20030;-69
2023/06/20 03:28:07;;;;;;;17.17;15.27;;;20.70;99.90;;;;;;5034214;28;20581;-69
2023/06/20 03:30:34;;;;;;;17.45;15.63;;;20.70;99.90;;;;;;5030233;28;20028;-68
2023/06/20 03:33:00;;;;;;;18.25;15.55;;;20.70;99.90;;;;;;5032103;28;20048;-69
2023/06/20 03:35:26;;;;;;;19.45;17.42;;;20.70;99.90;;;;;;5030419;28;20056;-69
2023/06/20 03:37:53;;;;;;;18.13;16.23;;;20.70;99.90;;;;;;5029972;28;20028;-69
2023/06/20 03:40:19;;;;;;;18.77;16.60;;;20.70;99.90;;;;;;5033334;28;20482;-69
2023/06/20 03:42:46;;;;;;;18.67;16.30;;;20.80;99.90;;;;;;5036203;28;20028;-69
2023/06/20 03:45:12;;;;;;;18.10;16.20;;;20.80;99.90;;;;;;5021904;28;20033;-69
2023/06/20 03:47:40;;;;;;;19.48;17.05;;;20.80;99.90;;;;;;5032451;28;20033;-69
2023/06/20 03:50:06;;;;;;;18.70;16.80;;;20.80;99.90;;;;;;5037966;28;20753;-69
2023/06/20 03:52:32;;;;;;;21.85;17.92;;;20.90;99.90;;;;;;5036084;28;20438;-69
2023/06/20 03:54:58;;;;;;;18.73;16.70;;;20.90;99.90;;;;;;5016072;28;20033;-68
2023/06/20 03:57:24;;;;;;;21.30;16.40;;;20.90;99.90;;;;;;5031864;28;20041;-69
2023/06/20 03:59:50;;;;;;;18.35;16.40;;;20.90;99.90;;;;;;5059149;28;20498;-68
2023/06/20 04:02:16;;;;;;;19.20;17.02;;;20.90;99.90;;;;;;5049517;28;20037;-68
2023/06/20 04:04:49;;;;;;;21.50;16.63;;;21.00;99.90;;;;;;5055261;28;20033;-69
2023/06/20 04:07:18;;;;;;;19.65;17.40;;;21.00;99.90;;;;;;5035430;28;20200;-68
2023/06/20 04:09:49;;;;;;;18.60;16.70;;;21.00;99.90;;;;;;5037565;28;20039;-68
2023/06/20 04:12:15;;;;;;;21.05;17.33;;;21.00;99.90;;;;;;5050782;28;20151;-68
2023/06/20 04:14:41;;;;;;;18.27;16.35;;;21.00;99.90;;;;;;5051031;28;20399;-68
2023/06/20 04:17:07;;;;;;;18.23;16.33;;;21.00;99.90;;;;;;5049282;28;20040;-68
2023/06/20 04:19:36;;;;;;;18.83;16.83;;;21.00;99.90;;;;;;5047888;28;20107;-68
2023/06/20 04:22:01;;;;;;;19.67;17.58;;;21.00;99.90;;;;;;5030658;28;20048;-68
2023/06/20 04:24:28;;;;;;;20.00;17.17;;;21.00;99.90;;;;;;5034881;28;20021;-68
2023/06/20 04:26:56;;;;;;;21.42;17.65;;;21.10;99.90;;;;;;5055893;28;20027;-68
2023/06/20 04:29:22;;;;;;;20.02;17.65;;;21.10;99.90;;;;;;5053147;28;20029;-68
2023/06/20 04:31:52;;;;;;;18.92;16.92;;;21.10;99.90;;;;;;5036949;28;20506;-68
2023/06/20 04:34:22;;;;;;;18.58;16.67;;;21.10;99.90;;;;;;5035531;28;20126;-68
2023/06/20 04:36:49;;;;;;;22.27;17.65;;;21.10;99.90;;;;;;5036227;28;20407;-68
2023/06/20 04:39:15;;;;;;;19.77;17.33;;;21.10;99.90;;;;;;5031089;28;20040;-68
2023/06/20 04:41:41;;;;;;;22.10;17.38;;;21.20;99.90;;;;;;5054197;28;20210;-68
2023/06/20 04:44:08;;;;;;;18.92;16.70;;;21.20;99.90;;;;;;5038233;28;20147;-68
2023/06/20 04:46:33;;;;;;;20.00;17.33;;;21.20;99.90;;;;;;5058208;28;20444;-68
2023/06/20 04:49:00;;;;;;;19.75;17.27;;;21.30;99.90;;;;;;5039302;28;20177;-69
2023/06/20 04:51:27;;;;;;;21.67;18.00;;;21.30;99.90;;;;;;5039885;28;20049;-68
2023/06/20 04:53:53;;;;;;;18.98;16.40;;;21.30;99.70;;;;;;5057415;28;20111;-68
2023/06/20 04:56:20;;;;;;;21.00;17.45;;;21.40;99.50;;;;;;5056219;28;20039;-68
2023/06/20 04:58:46;;;;;;;18.60;16.63;;;21.40;99.40;;;;;;5040087;28;20500;-68
2023/06/20 05:01:14;;;;;;;20.60;16.77;;;21.40;99.60;;;;;;5054227;28;20045;-68
2023/06/20 05:03:43;;;;;;;23.05;18.67;;;21.50;99.20;;;;;;5038042;28;20028;-69
2023/06/20 05:06:16;;;;;;;18.80;16.77;;;21.60;98.90;;;;;;5042953;28;20116;-68
2023/06/20 05:08:44;;;;;;;21.48;17.40;;;21.60;98.20;;;;;;5042909;28;20085;-69
2023/06/20 05:11:10;;;;;;;20.88;17.77;;;21.70;98.40;;;;;;5040928;28;20114;-68
2023/06/20 05:13:36;;;;;;;19.63;17.55;;;21.80;98.00;;;;;;5055686;28;20055;-68
2023/06/20 05:16:02;;;;;;;23.20;17.05;;;21.80;97.20;;;;;;5060197;28;20048;-69
2023/06/20 05:18:28;;;;;;;18.85;16.65;;;21.90;97.10;;;;;;5056877;28;20024;-69
2023/06/20 05:20:55;;;;;;;18.17;16.38;;;21.90;97.20;;;;;;5052074;28;20139;-69
2023/06/20 05:23:21;;;;;;;22.67;17.65;;;21.90;97.60;;;;;;5054441;28;20067;-68
2023/06/20 05:25:47;;;;;;;19.02;16.88;;;22.00;97.20;;;;;;5054236;28;20035;-68
2023/06/20 05:28:13;;;;;;;18.42;16.52;;;22.20;97.10;;;;;;5055697;28;20041;-69
2023/06/20 05:30:39;;;;;;;19.98;17.02;;;22.20;97.00;;;;;;5055207;28;20037;-68
2023/06/20 05:33:04;;;;;;;19.05;16.10;;;22.40;97.00;;;;;;5054645;28;20102;-69
2023/06/20 05:35:30;;;;;;;19.40;17.00;;;22.50;97.40;;;;;;5053243;28;20033;-69
2023/06/20 05:37:56;;;;;;;18.90;16.35;;;22.70;95.90;;;;;;5048778;28;20470;-69
2023/06/20 05:40:22;;;;;;;17.23;15.18;;;22.70;95.70;;;;;;5049352;28;20472;-69
2023/06/20 05:42:47;;;;;;;16.55;14.77;;;22.80;96.30;;;;;;5047170;28;20033;-69
2023/06/20 05:45:13;;;;;;;22.48;14.52;;;22.90;96.30;;;;;;5050866;28;20020;-69
2023/06/20 05:47:39;;;;;;;18.83;15.57;;;23.10;96.60;;;;;;5065775;28;20037;-69
2023/06/20 05:50:05;;;;;;;17.13;14.63;;;23.20;96.60;;;;;;5050091;28;20152;-69
2023/06/20 05:52:31;;;;;;;16.30;14.65;;;23.30;96.10;;;;;;5046793;28;20072;-69
2023/06/20 05:54:57;;;;;;;17.92;15.98;;;23.30;95.60;;;;;;5059042;28;20048;-69
2023/06/20 05:57:23;;;;;;;18.52;15.27;;;23.40;94.50;;;;;;5054222;28;20040;-69
2023/06/20 05:59:50;;;;;;;19.95;17.38;;;23.40;94.40;;;;;;5052751;28;20040;-69
2023/06/20 06:02:15;;;;;;;19.88;15.70;;;23.50;94.30;;;;;;5048820;28;20033;-69
2023/06/20 06:04:43;;;;;;;17.23;15.43;;;23.50;94.60;;;;;;5054029;28;20400;-69
2023/06/20 06:07:10;;;;;;;19.50;16.95;;;23.60;94.10;;;;;;5054410;28;20033;-69
2023/06/20 06:09:36;;;;;;;17.50;15.63;;;23.70;93.80;;;;;;5029230;28;20071;-69
2023/06/20 06:12:02;;;;;;;18.08;15.63;;;23.80;93.40;;;;;;5040994;28;20059;-69
2023/06/20 06:14:28;;;;;;;20.10;16.02;;;23.80;92.90;;;;;;5055663;28;20037;-69
2023/06/20 06:16:55;;;;;;;17.08;14.88;;;23.80;93.40;;;;;;5056179;28;20498;-70
2023/06/20 06:19:21;;;;;;;16.75;14.98;;;23.90;92.90;;;;;;5036638;28;20053;-69
2023/06/20 06:21:47;;;;;;;18.70;16.05;;;24.00;92.50;;;;;;5055186;28;20173;-69
2023/06/20 06:24:13;;;;;;;17.85;14.95;;;24.00;91.90;;;;;;5053249;28;20516;-69
2023/06/20 06:26:39;;;;;;;18.38;14.85;;;24.10;91.70;;;;;;5054975;28;20037;-69
2023/06/20 06:29:05;;;;;;;21.50;15.90;;;24.20;92.20;;;;;;5055478;28;20592;-69
2023/06/20 06:31:34;;;;;;;18.10;15.32;;;24.30;91.80;;;;;;5054318;28;20041;-69
2023/06/20 06:34:03;;;;;;;16.00;14.18;;;24.50;91.80;;;;;;5043911;28;20302;-66
2023/06/20 06:36:31;;;;;;;18.13;14.48;;;24.50;92.00;;;;;;5051739;28;20032;-66
2023/06/20 06:38:59;;;;;;;16.08;14.23;;;24.60;91.90;;;;;;5059337;28;20060;-69
2023/06/20 06:41:25;;;;;;;16.35;14.30;;;24.70;91.30;;;;;;5051844;28;20064;-69
2023/06/20 06:43:51;;;;;;;15.23;13.65;;;24.80;91.20;;;;;;5054692;28;20032;-69
2023/06/20 06:46:17;;;;;;;17.02;15.32;;;24.80;91.00;;;;;;5035519;28;20032;-69
2023/06/20 06:48:43;;;;;;;15.52;13.82;;;24.80;90.60;;;;;;5054443;28;20024;-69
2023/06/20 06:51:09;;;;;;;16.83;15.13;;;25.00;91.00;;;;;;5053328;28;20750;-69
2023/06/20 06:53:35;;;;;;;17.38;15.55;;;25.00;90.20;;;;;;5055233;28;20013;-69
2023/06/20 06:56:01;;;;;;;17.45;15.05;;;25.00;90.10;;;;;;5034226;28;20156;-69
2023/06/20 06:58:27;;;;;;;17.27;14.18;;;25.10;89.40;;;;;;5054518;28;20071;-66
2023/06/20 07:00:52;;;;;;;16.67;14.73;;;25.10;90.30;;;;;;5052194;28;20068;-69
2023/06/20 07:03:18;;;;;;;15.88;14.18;;;25.20;91.00;;;;;;5034479;28;20766;-68
2023/06/20 07:05:44;;;;;;;16.48;14.18;;;25.30;90.70;;;;;;5054523;28;20476;-68
2023/06/20 07:08:10;;;;;;;16.15;14.00;;;25.30;90.70;;;;;;5053360;28;20044;-69
2023/06/20 07:10:35;;;;;;;18.92;15.07;;;25.20;90.20;;;;;;5055489;28;20103;-68
2023/06/20 07:13:05;;;;;;;15.65;13.95;;;25.20;89.20;;;;;;5054170;28;20503;-68
2023/06/20 07:15:32;;;;;;;16.40;14.18;;;25.20;90.10;;;;;;5055171;28;20031;-68
2023/06/20 07:17:57;;;;;;;17.13;14.15;;;25.20;90.60;;;;;;5052113;28;20115;-69
2023/06/20 07:20:23;;;;;;;15.05;13.40;;;25.20;90.70;;;;;;5052062;28;20478;-68
2023/06/20 07:22:49;;;;;;;16.00;14.27;;;25.30;90.50;;;;;;5055265;28;20563;-69
2023/06/20 07:25:16;;;;;;;18.38;16.00;;;25.30;90.60;;;;;;5052269;28;20025;-68
2023/06/20 07:27:41;;;;;;;20.73;16.30;;;25.40;88.50;;;;;;5054114;28;20464;-68
2023/06/20 07:30:07;;;;;;;17.50;15.02;;;25.40;89.00;;;;;;5052090;28;20039;-68
2023/06/20 07:32:33;;;;;;;18.20;16.20;;;25.40;89.80;;;;;;5055302;28;20041;-68
2023/06/20 07:34:59;;;;;;;16.17;14.48;;;25.40;89.50;;;;;;5051328;28;20806;-69
2023/06/20 07:37:25;;;;;;;17.05;15.35;;;25.40;89.80;;;;;;5052433;28;20044;-70
2023/06/20 07:39:50;;;;;;;18.25;16.35;;;25.50;90.40;;;;;;5056100;28;20467;-70
2023/06/20 07:42:16;;;;;;;18.98;15.10;;;25.50;88.50;;;;;;5051238;28;20114;-71
2023/06/20 07:44:42;;;;;;;17.30;14.95;;;25.50;87.80;;;;;;5054778;28;20037;-69
2023/06/20 07:47:08;;;;;;;18.40;14.80;;;25.50;87.70;;;;;;5053717;28;20128;-69
2023/06/20 07:49:33;;;;;;;15.70;14.20;;;25.40;88.90;;;;;;5053928;28;20089;-69
2023/06/20 07:51:59;;;;;;;16.23;14.63;;;25.40;90.20;;;;;;5051234;28;20148;-71
2023/06/20 07:54:25;;;;;;;15.77;14.05;;;25.40;90.10;;;;;;5048532;28;20036;-69
2023/06/20 07:56:51;;;;;;;16.27;14.57;;;25.30;90.50;;;;;;5055019;28;20037;-69
2023/06/20 07:59:17;;;;;;;15.52;14.02;;;25.30;90.90;;;;;;5035639;28;20872;-69
2023/06/20 08:01:43;;;;;;;17.75;15.80;;;25.20;91.50;;;;;;5052914;28;20075;-68
2023/06/20 08:04:09;;;;;;;17.55;14.43;;;25.20;91.10;;;;;;5051642;28;20037;-69
2023/06/20 08:06:35;;;;;;;16.08;14.15;;;25.10;91.30;;;;;;5057065;28;20036;-69
2023/06/20 08:09:01;;;;;;;15.23;13.73;;;25.00;91.40;;;;;;5054507;28;20075;-70
2023/06/20 08:11:26;;;;;;;16.65;14.73;;;24.90;92.00;;;;;;5050728;28;20111;-70
2023/06/20 08:13:52;;;;;;;19.10;17.08;;;24.80;91.60;;;;;;5047464;28;20094;-69
2023/06/20 08:16:18;;;;;;;20.35;16.60;;;24.80;91.50;;;;;;5052192;28;20041;-70
2023/06/20 08:18:44;;;;;;;16.27;14.57;;;24.70;91.90;;;;;;5051631;28;20040;-69
2023/06/20 08:21:10;;;;;;;16.70;15.00;;;24.60;92.20;;;;;;5060034;28;20038;-69
2023/06/20 08:23:35;;;;;;;19.55;16.80;;;24.50;92.60;;;;;;5057645;28;20033;-70
2023/06/20 08:26:01;;;;;;;17.08;15.27;;;24.50;92.60;;;;;;5062414;28;20079;-69
2023/06/20 08:28:27;;;;;;;18.10;16.17;;;24.40;92.60;;;;;;5055745;28;20399;-70
2023/06/20 08:30:53;;;;;;;17.23;15.48;;;24.30;92.80;;;;;;5058969;28;20037;-68
2023/06/20 08:33:20;;;;;;;17.73;15.45;;;24.30;92.90;;;;;;5055270;28;20643;-68
2023/06/20 08:35:50;;;;;;;19.00;16.75;;;24.20;93.30;;;;;;5056139;28;20040;-68
2023/06/20 08:38:16;;;;;;;22.13;18.75;;;24.10;93.40;;;;;;5055801;28;20770;-68
2023/06/20 08:40:42;;;;;;;23.05;18.75;;;24.10;93.40;;;;;;5056704;28;20033;-68
2023/06/20 08:43:19;;;;;;;18.95;17.00;;;24.10;93.90;;;;;;5055014;28;20484;-68
2023/06/20 08:45:45;;;;;;;19.48;17.25;;;24.00;94.10;;;;;;5054834;28;20147;-68
2023/06/20 08:48:10;;;;;;;21.52;17.95;;;23.90;94.30;;;;;;5057189;28;20728;-68
2023/06/20 08:50:37;;;;;;;19.95;16.73;;;23.90;94.40;;;;;;5056730;28;20048;-68
2023/06/20 08:53:06;;;;;;;20.90;18.45;;;23.80;95.10;;;;;;5056835;28;20071;-68
2023/06/20 08:55:34;;;;;;;21.80;17.85;;;23.70;95.60;;;;;;5054649;28;20056;-68
2023/06/20 08:58:00;;;;;;;20.40;17.75;;;23.60;96.10;;;;;;5055957;28;20610;-68
2023/06/20 09:00:27;;;;;;;26.42;18.77;;;23.50;97.00;;;;;;5056312;28;20131;-68
2023/06/20 09:02:54;;;;;;;19.92;17.42;;;23.40;98.00;;;;;;5055128;28;20385;-67
2023/06/20 09:05:20;;;;;;;20.73;18.55;;;23.30;99.10;;;;;;5054694;28;20036;-67
2023/06/20 09:07:47;;;;;;;20.52;18.45;;;23.10;99.70;;;;;;5038937;28;20036;-67
2023/06/20 09:10:18;;;;;;;24.13;19.25;;;23.00;99.90;;;;;;5037130;28;20071;-69
2023/06/20 09:12:46;;;;;;;20.17;18.08;;;22.80;99.90;;;;;;5056122;28;20032;-68
2023/06/20 09:15:20;;;;;;;21.60;19.00;;;22.70;99.90;;;;;;5036757;28;20139;-69
2023/06/20 09:17:54;;;;;;;22.40;18.63;;;22.60;99.90;;;;;;5054686;28;20040;-68
2023/06/20 09:20:23;;;;;;;21.85;19.15;;;22.50;99.90;;;;;;5054403;28;20734;-68
2023/06/20 09:22:49;;;;;;;21.90;19.45;;;22.50;99.90;;;;;;5057240;28;20029;-68
2023/06/20 09:25:24;;;;;;;24.67;20.20;;;22.30;99.90;;;;;;5052353;28;20032;-67
2023/06/20 09:27:51;;;;;;;26.02;20.95;;;22.30;99.90;;;;;;5059972;28;20024;-67
2023/06/20 09:30:17;;;;;;;23.42;20.38;;;22.20;99.90;;;;;;5048611;28;20064;-68
2023/06/20 09:32:43;;;;;;;25.55;19.83;;;22.10;99.90;;;;;;5052727;28;20064;-68
2023/06/20 09:35:16;;;;;;;26.35;21.27;;;22.10;99.90;;;;;;5050966;28;20453;-67
2023/06/20 09:37:51;;;;;;;27.70;21.70;;;22.00;99.90;;;;;;5035681;28;20032;-68
2023/06/20 09:40:19;;;;;;;24.52;19.08;;;22.00;99.90;;;;;;5050210;28;20033;-68
2023/06/20 09:42:46;;;;;;;23.80;20.63;;;22.00;99.90;;;;;;5051284;28;20040;-68
2023/06/20 09:45:14;;;;;;;28.15;21.38;;;21.90;99.90;;;;;;5054517;28;20709;-67
2023/06/20 09:47:42;;;;;;;25.73;21.55;;;21.90;99.90;;;;;;5049720;28;20033;-68
2023/06/20 09:50:13;;;;;;;27.27;22.38;;;21.80;99.90;;;;;;5056400;28;20048;-68
2023/06/20 09:53:00;;;;;;;28.55;21.35;;;21.80;99.90;;;;;;5056392;28;20053;-67
2023/06/20 09:55:26;;;;;;;24.65;19.85;;;21.80;99.90;;;;;;5053950;28;20029;-67
2023/06/20 09:57:58;;;;;;;22.90;20.02;;;21.80;99.90;;;;;;5049110;28;20031;-68
2023/06/20 10:00:26;;;;;;;28.08;22.52;;;21.70;99.90;;;;;;5053929;28;20047;-67
2023/06/20 10:02:53;;;;;;;23.80;20.33;;;21.70;99.90;;;;;;5049831;28;20539;-68
2023/06/20 10:05:20;;;;;;;29.90;22.17;;;21.70;99.90;;;;;;5049352;28;20695;-67
2023/06/20 10:07:48;;;;;;;24.60;20.90;;;21.70;99.90;;;;;;5045579;28;20413;-67
2023/06/20 10:10:16;;;;;;;23.88;20.65;;;21.60;99.90;;;;;;5055875;28;20037;-67
2023/06/20 10:12:44;;;;;;;25.45;20.75;;;21.60;99.90;;;;;;5055361;28;20074;-68
2023/06/20 10:15:14;;;;;;;25.13;20.35;;;21.60;99.90;;;;;;5052799;28;20395;-67
2023/06/20 10:17:48;;;;;;;24.02;20.52;;;21.70;99.90;;;;;;5052609;28;20029;-67
2023/06/20 10:20:28;;;;;;;27.67;22.08;;;21.70;99.90;;;;;;5055702;28;20427;-68
2023/06/20 10:22:58;;;;;;;25.10;20.63;;;21.70;99.90;;;;;;5048364;28;20036;-67
2023/06/20 10:25:26;;;;;;;28.85;22.85;;;21.70;99.90;;;;;;5030729;28;20868;-68
2023/06/20 10:28:01;;;;;;;23.10;20.63;;;21.70;99.90;;;;;;5054850;28;20032;-68
2023/06/20 10:30:46;;;;;;;25.20;21.80;;;21.70;99.90;;;;;;5038050;28;20033;-67
2023/06/20 10:33:13;;;;;;;26.20;21.52;;;21.70;99.90;;;;;;5049398;28;20036;-67
2023/06/20 10:35:55;;;;;;;25.33;21.40;;;21.70;99.90;;;;;;5054618;28;20044;-67
2023/06/20 10:38:21;;;;;;;24.05;20.45;;;21.80;99.90;;;;;;5051354;28;20040;-67
2023/06/20 10:40:47;;;;;;;24.35;20.95;;;21.80;99.90;;;;;;5053231;28;20041;-67
2023/06/20 10:43:17;;;;;;;24.63;20.77;;;21.80;99.90;;;;;;5030684;28;20029;-66
2023/06/20 10:45:57;;;;;;;25.02;20.58;;;21.80;99.90;;;;;;5054144;28;20040;-66
2023/06/20 10:48:29;;;;;;;23.13;20.25;;;21.80;99.90;;;;;;5054356;28;20134;-66
2023/06/20 10:51:00;;;;;;;24.80;19.90;;;21.90;99.90;;;;;;5051790;28;20140;-67
2023/06/20 10:53:28;;;;;;;23.02;20.52;;;21.90;99.90;;;;;;5051268;28;20610;-67
2023/06/20 10:55:53;;;;;;;22.75;19.15;;;21.90;99.90;;;;;;5049338;28;20032;-67
2023/06/20 10:58:19;;;;;;;23.40;19.85;;;22.00;99.90;;;;;;5051744;28;20033;-67
2023/06/20 11:00:45;;;;;;;23.25;19.60;;;22.00;99.90;;;;;;5055220;28;20039;-67
2023/06/20 11:03:11;;;;;;;24.08;20.20;;;22.00;99.90;;;;;;5051291;28;20025;-67
2023/06/20 11:05:37;;;;;;;27.02;20.55;;;22.00;99.90;;;;;;5055595;28;20103;-66
2023/06/20 11:08:08;;;;;;;22.83;20.02;;;22.00;99.90;;;;;;5050810;28;20399;-67
2023/06/20 11:10:36;;;;;;;22.42;20.00;;;22.10;99.90;;;;;;5045765;28;20476;-67
2023/06/20 11:13:03;;;;;;;23.20;19.42;;;22.10;99.90;;;;;;5053931;28;20133;-67
2023/06/20 11:15:32;;;;;;;24.85;21.23;;;22.10;99.90;;;;;;5049733;28;20056;-67
2023/06/20 11:18:01;;;;;;;25.38;21.90;;;22.10;99.90;;;;;;5053685;28;20036;-67
2023/06/20 11:20:27;;;;;;;26.08;20.55;;;22.20;99.90;;;;;;5053710;28;20033;-67
2023/06/20 11:22:56;;;;;;;27.98;22.73;;;22.20;99.90;;;;;;5052321;28;20055;-66
2023/06/20 11:25:33;;;;;;;24.33;20.80;;;22.20;99.90;;;;;;5051747;28;20037;-67
2023/06/20 11:28:08;;;;;;;24.20;20.33;;;22.20;99.90;;;;;;5050749;28;20032;-67
2023/06/20 11:30:37;;;;;;;27.52;22.05;;;22.30;99.90;;;;;;5049823;28;20083;-67
2023/06/20 11:33:09;;;;;;;26.35;21.27;;;22.50;99.90;;;;;;5053351;28;20036;-67
2023/06/20 11:35:51;;;;;;;24.88;22.27;;;22.70;99.90;;;;;;5052673;28;20495;-67
2023/06/20 11:38:18;;;;;;;28.40;23.05;;;23.00;99.90;;;;;;5050369;28;20040;-67
2023/06/20 11:40:45;;;;;;;23.50;20.92;;;23.20;99.90;;;;;;5053976;28;20032;-67
2023/06/20 11:43:26;;;;;;;27.10;21.10;;;23.40;99.90;;;;;;5051279;28;20040;-67
2023/06/20 11:46:00;;;;;;;28.77;22.02;;;23.60;99.90;;;;;;5053732;28;20536;-68
2023/06/20 11:48:28;;;;;;;23.48;20.88;;;23.70;99.90;;;;;;5050907;28;20056;-67
2023/06/20 11:50:56;;;;;;;22.48;18.63;;;23.80;99.90;;;;;;5054295;28;20086;-67
2023/06/20 11:53:29;;;;;;;22.17;19.77;;;23.90;99.90;;;;;;5051382;28;20887;-68
2023/06/20 11:55:59;;;;;;;19.30;17.27;;;24.00;99.90;;;;;;5053228;28;20039;-68
2023/06/20 11:58:26;;;;;;;21.75;19.38;;;24.10;99.90;;;;;;5053483;28;20040;-68
2023/06/20 12:01:00;;;;;;;20.42;18.27;;;24.20;99.90;;;;;;5050793;28;20029;-68
2023/06/20 12:03:27;;;;;;;20.45;18.25;;;24.30;99.90;;;;;;5050746;28;20538;-68
2023/06/20 12:05:56;;;;;;;20.90;18.70;;;24.40;99.90;;;;;;5051788;28;20036;-67
2023/06/20 12:08:24;;;;;;;22.38;20.08;;;24.40;99.90;;;;;;5049772;28;20639;-69
2023/06/20 12:11:01;;;;;;;22.75;19.58;;;24.40;99.90;;;;;;5054122;28;20037;-69
2023/06/20 12:13:28;;;;;;;22.25;19.50;;;24.40;99.90;;;;;;5052848;28;20044;-69
2023/06/20 12:15:54;;;;;;;20.35;18.17;;;24.40;99.90;;;;;;5052439;28;20024;-69
2023/06/20 12:18:20;;;;;;;20.50;17.83;;;24.40;99.90;;;;;;5050889;28;20045;-69
2023/06/20 12:20:46;;;;;;;20.38;18.27;;;24.50;99.90;;;;;;5052767;28;20025;-69
2023/06/20 12:23:13;;;;;;;21.30;18.73;;;24.50;99.90;;;;;;5051184;28;20036;-69
2023/06/20 12:25:39;;;;;;;21.17;18.90;;;24.60;99.90;;;;;;5050918;28;20112;-68
2023/06/20 12:28:05;;;;;;;20.83;18.63;;;24.70;99.90;;;;;;5052183;28;20110;-69
2023/06/20 12:30:31;;;;;;;21.88;19.58;;;24.80;99.90;;;;;;5053152;28;20078;-65
2023/06/20 12:32:59;;;;;;;21.27;19.00;;;24.90;99.90;;;;;;5051769;28;20555;-65